Time;durP1;ratioP1;P1;durP2;ratioP2;P2;SDS_P1;SDS_P2;PMS_P1;PMS_P2;Temp;Humidity;BMP_temperature;BMP_pressure;BME280_temperature;BME280_humidity;BME280_pressure;Samples;Min_cycle;Max_cycle;Signal;HPM_P1;HPM_P2
2022/06/14 00:01:44;;;;;;;5.53;2.40;;;;;;;20.18;44.11;100968.25;5016542;28;20797;-74
2022/06/14 00:04:09;;;;;;;7.05;2.72;;;;;;;20.04;44.71;100969.25;5034228;28;20490;-74
2022/06/14 00:06:35;;;;;;;3.90;2.57;;;;;;;20.02;44.69;100974.25;5034184;28;20763;-74
2022/06/14 00:09:00;;;;;;;3.67;2.13;;;;;;;20.01;44.45;100965.16;5033827;28;20410;-74
2022/06/14 00:11:38;;;;;;;7.80;2.47;;;;;;;19.96;44.32;100973.47;5034200;28;20387;-74
2022/06/14 00:14:06;;;;;;;4.20;2.58;;;;;;;19.82;44.33;100972.56;5018964;28;20553;-74
2022/06/14 00:16:33;;;;;;;4.93;2.40;;;;;;;19.76;44.48;100968.22;5034113;28;20391;-74
2022/06/14 00:18:58;;;;;;;5.22;1.98;;;;;;;19.78;44.45;100968.78;5034026;28;20414;-74
2022/06/14 00:21:25;;;;;;;7.30;2.60;;;;;;;19.77;44.67;100963.56;5034133;28;20387;-74
2022/06/14 00:23:50;;;;;;;3.03;2.40;;;;;;;19.49;45.29;100966.09;5018564;28;20742;-74
2022/06/14 00:26:16;;;;;;;4.47;2.75;;;;;;;19.39;45.77;100968.91;5033995;28;20436;-73
2022/06/14 00:28:43;;;;;;;3.20;2.20;;;;;;;19.42;45.59;100962.84;5032533;28;20494;-74
2022/06/14 00:31:18;;;;;;;5.03;2.75;;;;;;;19.49;45.28;100966.09;5033729;28;20395;-73
2022/06/14 00:33:43;;;;;;;4.80;2.63;;;;;;;19.43;45.41;100969.97;5033754;28;20395;-73
2022/06/14 00:36:21;;;;;;;5.17;2.40;;;;;;;19.40;45.63;100958.72;5033792;28;20400;-74
2022/06/14 00:38:47;;;;;;;5.95;2.22;;;;;;;19.40;45.95;100959.56;5033363;28;20427;-74
2022/06/14 00:41:36;;;;;;;4.72;2.53;;;;;;;19.43;45.99;100958.19;5033578;28;20488;-74
2022/06/14 00:44:04;;;;;;;3.47;2.22;;;;;;;19.43;46.07;100956.22;5033378;28;20395;-73
2022/06/14 00:46:38;;;;;;;3.25;2.42;;;;;;;19.39;46.26;100962.59;5033596;28;20397;-73
2022/06/14 00:49:17;;;;;;;3.70;2.80;;;;;;;19.20;46.78;100962.47;5015341;28;20450;-73
2022/06/14 00:52:05;;;;;;;5.32;2.90;;;;;;;19.13;47.31;100954.59;5033499;28;20423;-74
2022/06/14 00:54:39;;;;;;;4.40;2.65;;;;;;;19.17;47.16;100950.16;5031882;28;20739;-74
2022/06/14 00:57:13;;;;;;;3.47;2.60;;;;;;;19.17;47.28;100950.16;5014819;28;20437;-74
2022/06/14 00:59:41;;;;;;;3.23;2.50;;;;;;;19.13;47.24;100953.78;5033302;28;20403;-74
2022/06/14 01:02:17;;;;;;;4.60;2.50;;;;;;;19.01;47.39;100953.34;5033233;28;20816;-73
2022/06/14 01:04:43;;;;;;;6.63;2.50;;;;;;;18.85;47.80;100951.84;5032928;28;20390;-74
2022/06/14 01:07:21;;;;;;;5.85;3.17;;;;;;;18.80;47.98;100943.66;5033070;28;20411;-74
2022/06/14 01:09:51;;;;;;;4.33;2.60;;;;;;;18.84;47.81;100940.03;5014961;28;20736;-73
2022/06/14 01:12:22;;;;;;;6.38;2.40;;;;;;;18.84;47.93;100944.69;5033064;28;20421;-74
2022/06/14 01:15:03;;;;;;;7.43;2.55;;;;;;;18.80;47.67;100940.91;5032968;28;20392;-74
2022/06/14 01:17:32;;;;;;;5.65;2.72;;;;;;;18.87;47.30;100944.16;5033320;28;20380;-74
2022/06/14 01:19:58;;;;;;;3.60;2.28;;;;;;;18.84;47.41;100940.03;5032888;28;20440;-74
2022/06/14 01:22:24;;;;;;;6.47;2.77;;;;;;;18.88;47.24;100937.53;5032805;28;20470;-74
2022/06/14 01:24:50;;;;;;;5.32;2.72;;;;;;;18.90;47.17;100936.13;5017403;28;20469;-74
2022/06/14 01:27:18;;;;;;;4.87;2.80;;;;;;;18.96;46.89;100932.25;5032639;28;20878;-74
2022/06/14 01:29:58;;;;;;;5.15;2.50;;;;;;;19.02;46.81;100946.75;5032721;28;20423;-73
2022/06/14 01:32:28;;;;;;;5.32;2.58;;;;;;;19.04;46.70;100942.59;5032615;28;20387;-74
2022/06/14 01:34:58;;;;;;;8.55;3.17;;;;;;;19.06;46.68;100939.56;5032719;28;20867;-73
2022/06/14 01:37:24;;;;;;;4.23;2.50;;;;;;;19.09;46.61;100945.31;5032526;28;20379;-73
2022/06/14 01:39:50;;;;;;;5.47;2.58;;;;;;;19.10;46.57;100943.34;5032274;28;20399;-74
2022/06/14 01:42:46;;;;;;;4.63;2.63;;;;;;;19.05;46.49;100940.66;5014174;28;20473;-74
2022/06/14 01:45:35;;;;;;;6.60;2.15;;;;;;;19.04;46.59;100939.84;5032472;28;20387;-74
2022/06/14 01:48:25;;;;;;;4.13;2.63;;;;;;;19.03;46.74;100940.16;5032225;28;20411;-74
2022/06/14 01:54:05;;;;;;;4.65;2.72;;;;;;;18.90;47.34;100936.13;5032281;28;20406;-74
2022/06/14 01:56:45;;;;;;;4.30;2.28;;;;;;;18.70;48.03;100930.00;5032215;28;20387;-73
2022/06/14 01:59:21;;;;;;;4.70;2.72;;;;;;;18.52;48.73;100931.50;5032206;28;20932;-74
2022/06/14 02:02:04;;;;;;;4.20;2.55;;;;;;;18.39;49.39;100927.47;5032101;28;20395;-74
2022/06/14 02:04:50;;;;;;;4.68;2.70;;;;;;;18.27;49.75;100932.50;5032187;28;20388;-74
2022/06/14 02:07:45;;;;;;;4.50;2.40;;;;;;;18.26;49.87;100928.09;5013313;28;20502;-74
2022/06/14 02:10:33;;;;;;;3.10;2.03;;;;;;;18.15;50.53;100935.56;5031807;28;20890;-74
2022/06/14 02:13:18;;;;;;;4.17;2.50;;;;;;;18.09;51.11;100927.66;5014253;28;20453;-73
2022/06/14 02:15:52;;;;;;;3.78;2.58;;;;;;;18.01;51.49;100933.75;5032071;28;20395;-74
2022/06/14 02:18:31;;;;;;;7.65;3.53;;;;;;;17.99;51.75;100928.53;5031852;28;20415;-74
2022/06/14 02:21:02;;;;;;;4.30;2.88;;;;;;;18.07;51.54;100940.84;5030695;28;20413;-74
2022/06/14 02:23:32;;;;;;;4.03;2.60;;;;;;;18.07;51.31;100936.19;5031828;28;20458;-73
2022/06/14 02:26:04;;;;;;;4.43;2.50;;;;;;;17.97;51.69;100935.41;5031789;28;20747;-73
2022/06/14 02:28:36;;;;;;;3.30;2.58;;;;;;;17.97;51.78;100943.63;5031940;28;20510;-74
2022/06/14 02:31:11;;;;;;;4.20;2.80;;;;;;;17.99;51.17;100936.75;5031965;28;20387;-73
2022/06/14 02:33:41;;;;;;;3.17;2.10;;;;;;;17.96;50.70;100942.81;5013733;28;20426;-74
2022/06/14 02:36:15;;;;;;;4.25;3.17;;;;;;;17.81;51.01;100942.88;5031747;28;20878;-74
2022/06/14 02:38:53;;;;;;;5.30;2.63;;;;;;;17.66;51.47;100939.38;5031339;28;20410;-74
2022/06/14 02:41:29;;;;;;;2.58;2.38;;;;;;;17.62;51.57;100944.59;5031645;28;20482;-74
2022/06/14 02:44:04;;;;;;;3.97;2.50;;;;;;;17.62;51.67;100933.63;5031600;28;20391;-73
2022/06/14 02:46:48;;;;;;;5.83;2.57;;;;;;;17.60;51.62;100938.56;5031594;28;20383;-73
2022/06/14 02:49:22;;;;;;;2.65;2.45;;;;;;;17.58;51.67;100933.34;5031375;28;20878;-73
2022/06/14 02:51:52;;;;;;;3.37;2.37;;;;;;;17.45;51.77;100930.38;5031473;28;20401;-73
2022/06/14 02:54:31;;;;;;;3.90;2.53;;;;;;;17.37;51.90;100928.19;5031417;28;20391;-73
2022/06/14 02:57:17;;;;;;;5.10;3.17;;;;;;;17.41;52.21;100926.56;5031307;28;20399;-74
2022/06/14 02:59:52;;;;;;;5.53;3.07;;;;;;;17.38;52.17;100927.13;5031461;28;20394;-73
2022/06/14 03:02:24;;;;;;;6.50;4.10;;;;;;;17.45;52.00;100933.13;5031402;28;20401;-74
2022/06/14 03:05:29;;;;;;;9.27;4.22;;;;;;;17.44;52.09;100932.31;5031166;28;20383;-74
2022/06/14 03:08:00;;;;;;;5.35;2.92;;;;;;;17.58;51.80;100927.09;4985447;28;20890;-73
2022/06/14 03:10:36;;;;;;;25.65;3.90;;;;;;;17.72;51.26;100925.38;5013637;28;20446;-74
2022/06/14 03:13:12;;;;;;;8.07;2.78;;;;;;;17.83;50.62;100926.97;5016224;28;20406;-74
2022/06/14 03:15:44;;;;;;;4.63;1.98;;;;;;;17.89;50.09;100928.56;5031278;28;20386;-74
2022/06/14 03:18:45;;;;;;;4.63;2.23;;;;;;;17.83;50.24;100926.97;5031592;28;20387;-74
2022/06/14 03:21:18;;;;;;;3.38;2.42;;;;;;;17.78;50.41;100924.25;5035153;28;20888;-73
2022/06/14 03:23:59;;;;;;;5.33;2.60;;;;;;;17.82;50.10;100917.09;5035128;28;20410;-73
2022/06/14 03:26:32;;;;;;;4.25;1.90;;;;;;;17.85;50.02;100921.22;5034943;28;20387;-74
2022/06/14 03:29:07;;;;;;;5.60;2.30;;;;;;;17.79;49.95;100922.31;5034654;28;20423;-74
2022/06/14 03:31:59;;;;;;;7.18;2.45;;;;;;;17.76;50.04;100920.13;5035218;28;20813;-74
2022/06/14 03:34:38;;;;;;;6.30;2.43;;;;;;;17.73;50.20;100920.69;5034220;28;20434;-74
2022/06/14 03:37:04;;;;;;;6.25;2.30;;;;;;;17.72;50.46;100928.09;5034942;28;20398;-73
2022/06/14 03:39:34;;;;;;;7.60;3.00;;;;;;;17.75;50.44;100924.00;5034664;28;20883;-73
2022/06/14 03:42:03;;;;;;;5.45;2.58;;;;;;;17.73;50.19;100924.28;5034732;28;20453;-73
2022/06/14 03:44:30;;;;;;;5.53;2.40;;;;;;;17.74;50.49;100922.34;5019418;28;20491;-74
2022/06/14 03:47:19;;;;;;;5.93;2.15;;;;;;;17.80;50.15;100923.97;5034539;28;20870;-74
2022/06/14 03:49:53;;;;;;;8.88;2.13;;;;;;;17.80;50.06;100923.97;5034631;28;20486;-73
2022/06/14 03:52:30;;;;;;;4.40;1.80;;;;;;;17.81;50.20;100926.44;5034353;28;20465;-74
2022/06/14 03:55:25;;;;;;;4.07;2.17;;;;;;;17.81;50.04;100929.19;5034450;28;20474;-73
2022/06/14 03:58:24;;;;;;;3.87;2.03;;;;;;;17.83;50.13;100937.94;5034536;28;20390;-74
2022/06/14 04:00:54;;;;;;;6.55;2.40;;;;;;;17.82;50.08;100939.03;5034105;28;20398;-74
2022/06/14 04:03:45;;;;;;;5.25;2.10;;;;;;;17.73;50.54;100939.88;5034397;28;20437;-73
2022/06/14 04:06:50;;;;;;;5.57;2.20;;;;;;;17.73;50.86;100942.63;5034120;28;20842;-73
2022/06/14 04:09:44;;;;;;;3.92;2.22;;;;;;;17.76;50.87;100942.91;4977165;28;20444;-74
2022/06/14 04:12:39;;;;;;;3.83;2.20;;;;;;;17.78;50.76;100932.50;5002539;28;20402;-73
2022/06/14 04:15:25;;;;;;;2.65;1.83;;;;;;;17.82;50.88;100933.53;5034196;28;20474;-74
2022/06/14 04:18:34;;;;;;;4.38;2.70;;;;;;;17.83;50.88;100931.63;5033662;28;20430;-74
2022/06/14 04:20:50;;;;;;;5.57;2.42;;;;;;;17.79;50.84;100925.06;5033899;28;20395;-74
2022/06/14 04:23:43;;;;;;;5.80;2.45;;;;;;;17.70;50.98;100929.50;5034009;28;20419;-74
2022/06/14 04:26:18;;;;;;;4.93;2.75;;;;;;;17.62;51.21;100931.72;4996660;28;20464;-73
2022/06/14 04:28:55;;;;;;;4.60;2.33;;;;;;;17.57;51.28;100926.25;5016090;28;20423;-73
2022/06/14 04:31:44;;;;;;;4.22;2.47;;;;;;;17.58;51.46;100916.91;5032813;28;20587;-73
2022/06/14 04:34:19;;;;;;;2.40;1.83;;;;;;;17.64;51.64;100920.47;5033083;28;20453;-74
2022/06/14 04:37:01;;;;;;;5.95;2.35;;;;;;;17.71;51.26;100925.66;5033751;28;20395;-73
2022/06/14 04:39:36;;;;;;;3.72;1.95;;;;;;;17.76;51.28;100926.44;5033100;28;20450;-73
2022/06/14 04:42:10;;;;;;;5.40;2.47;;;;;;;17.78;51.32;100926.19;5033642;28;20387;-73
2022/06/14 04:44:43;;;;;;;9.25;2.20;;;;;;;17.81;51.01;100917.38;5033777;28;20811;-73
2022/06/14 04:47:18;;;;;;;4.15;2.20;;;;;;;17.80;51.33;100923.97;5033393;28;20379;-74
2022/06/14 04:50:11;;;;;;;4.70;2.42;;;;;;;17.85;51.06;100921.22;5015573;28;20910;-73
2022/06/14 04:52:42;;;;;;;5.73;2.80;;;;;;;17.88;50.85;100913.22;5033644;28;20385;-73
2022/06/14 04:55:23;;;;;;;5.95;2.45;;;;;;;17.91;51.04;100909.13;5033468;28;20445;-74
2022/06/14 04:58:11;;;;;;;5.28;2.15;;;;;;;17.97;50.96;100906.06;5015518;28;20453;-74
2022/06/14 05:00:43;;;;;;;4.07;2.22;;;;;;;17.94;50.96;100905.81;5033500;28;20399;-74
2022/06/14 05:03:15;;;;;;;4.88;2.30;;;;;;;17.81;51.19;100911.91;5033262;28;20803;-73
2022/06/14 05:05:47;;;;;;;5.22;2.42;;;;;;;17.92;50.86;100908.81;5033220;28;20422;-73
2022/06/14 05:08:37;;;;;;;7.85;2.47;;;;;;;17.89;50.75;100914.03;5033147;28;20418;-73
2022/06/14 05:11:19;;;;;;;6.63;2.55;;;;;;;17.88;50.79;100915.97;5032402;28;20525;-74
2022/06/14 05:14:08;;;;;;;5.25;2.42;;;;;;;18.00;50.56;100907.41;5015308;28;20417;-73
2022/06/14 05:16:51;;;;;;;10.20;2.67;;;;;;;17.99;50.52;100920.31;5032922;28;20480;-73
2022/06/14 05:19:29;;;;;;;5.10;2.60;;;;;;;17.97;50.45;100908.81;5031683;28;20396;-73
2022/06/14 05:22:10;;;;;;;6.80;2.45;;;;;;;18.00;50.32;100908.25;5032928;28;20507;-73
2022/06/14 05:24:37;;;;;;;5.07;2.35;;;;;;;18.08;49.86;100910.38;5032775;28;20387;-73
2022/06/14 05:27:07;;;;;;;4.07;2.47;;;;;;;18.12;49.57;100905.13;5014882;28;20742;-74
2022/06/14 05:29:40;;;;;;;4.78;2.70;;;;;;;18.16;49.69;100922.66;5032822;28;20942;-74
2022/06/14 05:32:09;;;;;;;4.50;2.85;;;;;;;18.17;49.30;100912.53;5014674;28;20403;-73
2022/06/14 05:35:10;;;;;;;4.60;2.30;;;;;;;18.17;49.21;100910.59;5032624;28;20399;-74
2022/06/14 05:37:56;;;;;;;5.03;2.43;;;;;;;18.17;49.50;100904.28;5032589;28;20756;-73
2022/06/14 05:40:44;;;;;;;4.27;2.40;;;;;;;18.24;49.40;100910.28;5032570;28;20746;-74
2022/06/14 05:43:20;;;;;;;7.68;2.80;;;;;;;18.33;49.02;100912.13;5014753;28;20771;-74
2022/06/14 05:45:51;;;;;;;2.67;2.30;;;;;;;18.39;49.17;100907.44;5032432;28;20406;-73
2022/06/14 05:48:27;;;;;;;4.65;2.53;;;;;;;18.41;49.10;100902.47;5032779;28;20472;-73
2022/06/14 05:50:56;;;;;;;8.75;2.95;;;;;;;18.43;49.20;100914.00;5032414;28;20379;-73
2022/06/14 05:53:37;;;;;;;6.28;2.40;;;;;;;18.45;49.08;100906.28;5032401;28;20423;-73
2022/06/14 05:56:31;;;;;;;10.33;2.70;;;;;;;18.51;49.02;100910.66;5032270;28;20503;-73
2022/06/14 05:59:06;;;;;;;5.35;2.83;;;;;;;18.51;49.05;100910.66;5032340;28;20391;-74
2022/06/14 06:01:43;;;;;;;4.70;2.83;;;;;;;18.48;48.94;100917.50;5030729;28;20411;-73
2022/06/14 06:04:25;;;;;;;4.75;2.63;;;;;;;18.53;48.81;100909.28;5032219;28;20727;-73
2022/06/14 06:06:59;;;;;;;9.02;2.95;;;;;;;18.60;48.58;100914.44;5014187;28;20441;-73
2022/06/14 06:09:33;;;;;;;8.57;2.73;;;;;;;18.65;48.46;100911.63;5030945;28;20466;-73
2022/06/14 06:12:12;;;;;;;6.40;2.67;;;;;;;18.71;48.11;100915.16;5016789;28;20395;-73
2022/06/14 06:14:49;;;;;;;5.13;2.75;;;;;;;18.69;48.15;100907.22;5032007;28;20392;-73
2022/06/14 06:17:28;;;;;;;5.30;2.60;;;;;;;18.75;48.05;100906.06;5031945;28;20387;-73
2022/06/14 06:20:31;;;;;;;7.00;2.40;;;;;;;18.76;48.26;100910.47;5017217;28;20439;-73
2022/06/14 06:23:17;;;;;;;4.68;2.55;;;;;;;18.80;48.32;100914.28;5031810;28;20383;-73
2022/06/14 06:25:49;;;;;;;3.53;2.20;;;;;;;18.82;48.22;100909.31;5031970;28;20438;-73
2022/06/14 06:28:21;;;;;;;6.85;2.85;;;;;;;18.86;48.10;100913.13;5031744;28;20425;-73
2022/06/14 06:30:56;;;;;;;3.15;2.30;;;;;;;18.89;48.05;100908.97;5031471;28;20406;-73
2022/06/14 06:33:25;;;;;;;7.90;2.60;;;;;;;18.93;48.22;100907.28;5031730;28;20387;-73
2022/06/14 06:36:16;;;;;;;7.32;2.75;;;;;;;19.04;47.84;100911.56;5031635;28;20383;-73
2022/06/14 06:39:00;;;;;;;3.38;1.90;;;;;;;19.07;47.45;100902.72;5031622;28;20433;-73
2022/06/14 06:44:37;;;;;;;3.92;2.35;;;;;;;19.11;47.09;100903.78;5031571;28;20425;-73
2022/06/14 06:47:10;;;;;;;6.50;2.83;;;;;;;19.11;47.01;100901.03;5031452;28;20754;-73
2022/06/14 06:49:45;;;;;;;6.32;2.40;;;;;;;19.16;46.79;100901.00;5013852;28;20403;-74
2022/06/14 06:52:12;;;;;;;3.07;2.50;;;;;;;19.21;46.67;100902.88;5031557;28;20391;-73
2022/06/14 06:54:46;;;;;;;6.03;2.42;;;;;;;19.23;46.69;100906.16;5036754;28;20445;-73
2022/06/14 06:57:19;;;;;;;7.28;2.20;;;;;;;19.26;46.70;100902.81;5022673;28;20403;-73
2022/06/14 06:59:47;;;;;;;5.55;1.98;;;;;;;19.27;46.60;100904.44;5037820;28;20532;-73
2022/06/14 07:02:22;;;;;;;7.10;2.00;;;;;;;19.31;46.32;100900.81;5037987;28;20387;-73
2022/06/14 07:05:05;;;;;;;6.60;2.60;;;;;;;19.32;46.34;100902.47;5037806;28;20425;-74
2022/06/14 07:07:58;;;;;;;5.40;2.03;;;;;;;19.42;46.41;100901.56;5038074;28;20414;-73
2022/06/14 07:10:40;;;;;;;3.37;2.10;;;;;;;19.49;46.15;100904.78;5029623;28;20434;-73
2022/06/14 07:13:21;;;;;;;5.13;2.08;;;;;;;19.55;46.09;100901.69;5037886;28;20390;-73
2022/06/14 07:16:06;;;;;;;6.30;2.35;;;;;;;19.59;45.95;100901.91;5037829;28;20421;-73
2022/06/14 07:18:43;;;;;;;5.00;2.05;;;;;;;19.61;45.88;100895.00;5036969;28;21385;-73
2022/06/14 07:21:14;;;;;;;3.53;2.38;;;;;;;19.68;45.99;100891.91;5037909;28;20387;-73
2022/06/14 07:24:03;;;;;;;5.82;2.40;;;;;;;19.78;46.08;100890.94;5037829;28;20485;-74
2022/06/14 07:26:36;;;;;;;6.83;2.80;;;;;;;19.82;46.09;100878.25;5020196;28;20935;-74
2022/06/14 07:29:14;;;;;;;5.22;2.33;;;;;;;19.88;46.07;100883.38;5037506;28;20411;-74
2022/06/14 07:31:42;;;;;;;7.38;2.42;;;;;;;19.89;45.94;100882.25;5020091;28;20395;-74
2022/06/14 07:34:09;;;;;;;4.28;2.17;;;;;;;19.95;45.93;100875.59;5037568;28;20395;-74
2022/06/14 07:36:49;;;;;;;6.32;2.15;;;;;;;20.06;45.42;100868.78;5037631;28;20395;-74
2022/06/14 07:39:27;;;;;;;6.75;2.38;;;;;;;20.16;45.38;100879.66;5037729;28;20917;-73
2022/06/14 07:42:02;;;;;;;10.05;2.70;;;;;;;20.24;45.49;100875.41;5037327;28;20411;-73
2022/06/14 07:44:39;;;;;;;4.10;2.40;;;;;;;20.30;45.16;100877.00;5037655;28;20482;-73
2022/06/14 07:47:19;;;;;;;4.18;2.30;;;;;;;20.35;44.98;100874.16;5037486;28;20394;-73
2022/06/14 07:49:55;;;;;;;6.82;2.33;;;;;;;20.38;44.98;100867.25;5037626;28;20883;-74
2022/06/14 07:52:42;;;;;;;3.80;2.17;;;;;;;20.45;45.00;100873.19;5037675;28;20426;-74
2022/06/14 07:55:26;;;;;;;4.35;2.17;;;;;;;20.52;45.15;100868.09;5037964;28;20383;-74
2022/06/14 07:58:04;;;;;;;3.70;2.10;;;;;;;20.58;45.05;100872.44;5036155;28;20485;-74
2022/06/14 08:04:04;;;;;;;5.95;2.22;;;;;;;20.77;44.01;100859.41;5037654;28;20382;-74
2022/06/14 08:06:35;;;;;;;4.70;2.20;;;;;;;20.87;43.82;100863.91;5023768;28;20422;-73
2022/06/14 08:09:19;;;;;;;3.92;2.05;;;;;;;20.96;43.18;100853.81;5034219;28;20476;-73
2022/06/14 08:11:47;;;;;;;3.40;2.07;;;;;;;21.02;42.88;100856.19;5034142;28;20507;-73
2022/06/14 08:14:32;;;;;;;6.23;2.50;;;;;;;21.02;42.15;100847.09;5034191;28;20387;-74
2022/06/14 08:16:59;;;;;;;4.03;2.00;;;;;;;21.08;42.44;100854.13;5033477;28;20457;-73
2022/06/14 08:19:33;;;;;;;4.70;2.58;;;;;;;21.12;42.24;100842.25;5033985;28;20394;-73
2022/06/14 08:22:15;;;;;;;2.50;2.10;;;;;;;21.21;42.39;100851.41;5016341;28;20426;-73
2022/06/14 08:24:48;;;;;;;2.80;2.00;;;;;;;21.31;42.04;100853.16;5016284;28;20387;-74
2022/06/14 08:27:23;;;;;;;5.03;2.15;;;;;;;21.42;41.51;100856.53;5033953;28;20423;-74
2022/06/14 08:30:13;;;;;;;1.90;1.60;;;;;;;21.54;41.39;100846.59;5032512;28;20392;-73
2022/06/14 08:32:54;;;;;;;2.28;2.05;;;;;;;21.64;41.30;100846.38;5033809;28;20791;-73
2022/06/14 08:35:50;;;;;;;4.15;2.45;;;;;;;21.71;41.17;100844.03;5033772;28;20411;-73
2022/06/14 08:38:22;;;;;;;5.18;2.35;;;;;;;21.76;41.17;100845.88;5033728;28;20392;-73
2022/06/14 08:41:23;;;;;;;3.13;2.03;;;;;;;21.88;41.48;100845.31;5033700;28;20391;-73
2022/06/14 08:43:55;;;;;;;4.03;2.28;;;;;;;22.03;41.06;100845.00;5033616;28;20395;-73
2022/06/14 08:46:29;;;;;;;3.90;2.53;;;;;;;22.08;41.05;100834.66;5033592;28;20902;-73
2022/06/14 08:49:33;;;;;;;4.80;2.10;;;;;;;22.19;41.15;100835.25;5033401;28;20415;-73
2022/06/14 08:52:25;;;;;;;2.50;2.00;;;;;;;22.31;40.79;100835.47;5033645;28;20746;-73
2022/06/14 08:55:18;;;;;;;7.28;2.55;;;;;;;22.41;40.30;100831.66;5033427;28;20399;-73
2022/06/14 08:58:08;;;;;;;4.28;2.50;;;;;;;22.55;40.49;100826.88;5033272;28;20457;-73
2022/06/14 09:01:00;;;;;;;5.40;2.00;;;;;;;22.66;40.47;100825.50;5033365;28;20383;-74
2022/06/14 09:03:59;;;;;;;3.53;2.30;;;;;;;22.77;40.39;100824.09;5020916;28;20441;-73
2022/06/14 09:06:58;;;;;;;5.65;2.95;;;;;;;22.87;40.10;100825.78;5033147;28;20411;-73
2022/06/14 09:09:44;;;;;;;3.63;1.95;;;;;;;22.96;39.85;100815.56;5033071;28;20438;-73
2022/06/14 09:12:36;;;;;;;4.97;2.13;;;;;;;23.12;39.73;100812.06;5033068;28;20403;-74
2022/06/14 09:15:33;;;;;;;3.85;1.98;;;;;;;23.23;39.50;100812.59;5015300;28;20395;-73
2022/06/14 09:18:01;;;;;;;4.47;2.10;;;;;;;23.39;38.87;100808.25;5032687;28;20391;-73
2022/06/14 09:20:37;;;;;;;3.78;2.28;;;;;;;23.51;38.99;100802.91;5032749;28;20387;-73
2022/06/14 09:23:24;;;;;;;4.28;2.40;;;;;;;23.68;39.12;100804.88;5032714;28;20813;-73
2022/06/14 09:26:27;;;;;;;3.50;2.13;;;;;;;23.89;38.74;100805.09;5032847;28;20394;-73
2022/06/14 09:29:08;;;;;;;3.30;1.77;;;;;;;24.06;38.23;100802.31;4999569;28;20490;-73
2022/06/14 09:31:44;;;;;;;3.03;1.83;;;;;;;24.25;37.97;100806.41;5032855;28;20478;-73
2022/06/14 09:34:32;;;;;;;4.45;1.92;;;;;;;24.31;36.97;100800.69;5032850;28;20750;-73
2022/06/14 09:37:31;;;;;;;3.42;2.28;;;;;;;24.40;36.77;100793.19;5032626;28;20396;-73
2022/06/14 09:40:39;;;;;;;5.67;2.27;;;;;;;24.65;36.29;100789.53;5032567;28;20441;-73
2022/06/14 09:43:05;;;;;;;2.92;2.25;;;;;;;24.78;36.15;100783.78;5005053;28;20502;-73
2022/06/14 09:45:52;;;;;;;4.47;1.90;;;;;;;24.98;36.06;100792.53;5032438;28;20746;-74
2022/06/14 09:48:56;;;;;;;6.50;2.90;;;;;;;25.17;35.90;100795.69;5015836;28;20439;-73
2022/06/14 09:52:13;;;;;;;3.43;1.80;;;;;;;25.51;35.39;100784.44;5032498;28;20395;-73
2022/06/14 09:54:53;;;;;;;4.28;1.90;;;;;;;25.83;35.17;100782.06;4998237;28;20411;-73
2022/06/14 09:57:37;;;;;;;5.88;2.15;;;;;;;26.26;34.17;100777.78;5032319;28;20478;-73
2022/06/14 10:00:17;;;;;;;3.40;2.10;;;;;;;27.27;32.45;100769.72;5014147;28;20419;-73
2022/06/14 10:03:33;;;;;;;5.40;2.60;;;;;;;29.42;29.72;100771.34;5032371;28;20827;-73
2022/06/14 10:06:04;;;;;;;3.55;1.92;;;;;;;30.58;27.36;100773.00;5031774;28;20413;-73
2022/06/14 10:08:59;;;;;;;3.95;1.90;;;;;;;31.19;26.86;100770.88;5031960;28;20417;-73
2022/06/14 10:12:13;;;;;;;4.47;2.28;;;;;;;32.09;25.28;100774.59;5032088;28;20755;-73
2022/06/14 10:15:05;;;;;;;3.00;1.95;;;;;;;32.63;24.13;100757.19;5022929;28;20399;-73
2022/06/14 10:17:34;;;;;;;3.35;1.88;;;;;;;32.99;23.81;100763.91;5003606;28;20821;-73
2022/06/14 10:20:06;;;;;;;4.03;2.20;;;;;;;33.15;23.63;100766.44;5031989;28;20483;-73
2022/06/14 10:22:56;;;;;;;4.55;2.30;;;;;;;33.28;23.25;100762.94;5013866;28;20403;-73
2022/06/14 10:28:11;;;;;;;4.03;1.92;;;;;;;33.94;22.62;100766.53;5031786;28;20477;-73
2022/06/14 10:28:40;;;;;;;2.75;1.92;;;;;;;34.80;21.55;100765.56;5030978;28;20423;-73
2022/06/14 10:31:42;;;;;;;2.60;2.03;;;;;;;35.48;20.50;100774.78;5031698;28;20414;-71
2022/06/14 10:34:28;;;;;;;2.22;1.95;;;;;;;35.98;20.00;100769.81;5016533;28;20397;-73
2022/06/14 10:37:08;;;;;;;4.60;2.00;;;;;;;36.41;19.62;100754.28;5027684;28;20390;-73
2022/06/14 10:39:55;;;;;;;2.15;1.92;;;;;;;36.52;19.55;100755.03;5031628;28;20392;-73
2022/06/14 10:42:35;;;;;;;3.72;1.80;;;;;;;36.59;19.47;100754.97;5031517;28;20762;-73
2022/06/14 10:45:19;;;;;;;2.10;1.88;;;;;;;36.91;19.00;100747.06;5031555;28;20446;-72
2022/06/14 10:47:47;;;;;;;3.40;2.00;;;;;;;37.30;18.53;100749.53;5031194;28;20826;-73
2022/06/14 10:50:41;;;;;;;3.63;2.22;;;;;;;37.68;18.30;100738.22;5031512;28;20438;-73
2022/06/14 10:53:47;;;;;;;4.60;2.05;;;;;;;38.10;17.66;100746.22;5031409;28;20801;-73
2022/06/14 10:56:49;;;;;;;6.00;2.20;;;;;;;38.52;17.09;100744.00;5031116;28;20431;-71
2022/06/14 10:59:17;;;;;;;4.53;2.15;;;;;;;38.68;16.81;100742.13;5031448;28;20392;-73
2022/06/14 11:01:47;;;;;;;4.97;1.85;;;;;;;39.06;16.66;100744.75;5013295;28;20943;-71
2022/06/14 11:04:47;;;;;;;4.45;2.28;;;;;;;38.86;16.57;100739.03;5031438;28;20738;-73
2022/06/14 11:07:25;;;;;;;2.63;1.88;;;;;;;38.68;16.87;100744.13;5011603;28;20462;-71
2022/06/14 11:10:11;;;;;;;3.40;2.10;;;;;;;39.06;16.48;100737.03;5011243;28;20401;-71
2022/06/14 11:13:00;;;;;;;3.97;2.30;;;;;;;39.48;15.98;100723.31;5011544;28;20843;-70
2022/06/14 11:15:44;;;;;;;4.03;2.03;;;;;;;39.60;15.90;100723.44;5011773;28;20938;-71
2022/06/14 11:18:42;;;;;;;6.13;2.00;;;;;;;39.19;16.03;100720.22;5011586;28;20480;-70
2022/06/14 11:21:20;;;;;;;4.07;2.20;;;;;;;39.52;15.84;100718.38;5011371;28;20563;-71
2022/06/14 11:23:55;;;;;;;4.88;1.90;;;;;;;39.28;15.90;100711.94;5011493;28;20396;-71
2022/06/14 11:26:44;;;;;;;3.50;1.92;;;;;;;39.02;16.07;100705.13;5011472;28;20389;-71
2022/06/14 11:29:21;;;;;;;4.15;1.80;;;;;;;39.18;16.01;100702.38;5011394;28;20503;-71
2022/06/14 11:32:02;;;;;;;4.18;1.90;;;;;;;38.92;16.22;100689.13;5011125;28;20627;-70
2022/06/14 11:34:36;;;;;;;3.08;1.85;;;;;;;38.89;16.05;100698.50;5011268;28;20388;-71
2022/06/14 11:37:52;;;;;;;7.82;2.30;;;;;;;39.14;15.83;100692.34;5011502;28;20821;-71
2022/06/14 11:40:24;;;;;;;6.90;1.88;;;;;;;39.18;15.67;100698.75;4984609;28;20883;-70
2022/06/14 11:42:57;;;;;;;2.17;1.77;;;;;;;38.94;16.00;100692.31;5014132;28;20397;-71
2022/06/14 11:45:41;;;;;;;3.47;1.50;;;;;;;39.01;16.33;100682.88;5015053;28;20435;-71
2022/06/14 11:48:15;;;;;;;2.67;2.03;;;;;;;38.89;16.00;100687.94;5014900;28;20408;-72
2022/06/14 11:51:07;;;;;;;2.35;1.90;;;;;;;38.57;16.32;100684.84;5013842;28;20397;-71
2022/06/14 11:53:48;;;;;;;3.22;1.73;;;;;;;38.62;16.28;100678.69;5014612;28;20850;-71
2022/06/14 11:56:48;;;;;;;3.08;1.88;;;;;;;38.62;16.05;100684.34;5014893;28;20397;-71
2022/06/14 11:59:22;;;;;;;3.67;1.73;;;;;;;38.74;16.05;100677.25;4973434;28;20398;-71
2022/06/14 12:02:19;;;;;;;5.87;1.90;;;;;;;38.74;16.24;100682.94;5013137;28;20909;-71
2022/06/14 12:04:47;;;;;;;2.00;1.80;;;;;;;38.74;16.03;100669.56;5009890;28;20879;-71
2022/06/14 12:07:21;;;;;;;7.72;2.00;;;;;;;38.70;16.21;100668.81;5016581;28;20805;-71
2022/06/14 12:10:07;;;;;;;4.32;1.55;;;;;;;38.65;15.75;100672.16;5034235;28;20928;-71
2022/06/14 12:12:57;;;;;;;1.95;1.73;;;;;;;38.50;16.05;100667.94;5034420;28;20390;-71
2022/06/14 12:15:33;;;;;;;2.75;1.75;;;;;;;38.39;16.27;100656.84;5033987;28;20719;-71
2022/06/14 12:18:03;;;;;;;3.33;1.90;;;;;;;38.36;16.06;100660.53;5016402;28;20403;-71
2022/06/14 12:20:35;;;;;;;2.57;1.50;;;;;;;38.31;15.86;100655.31;5034150;28;20432;-71
2022/06/14 12:23:14;;;;;;;3.58;1.60;;;;;;;38.24;15.83;100649.75;5033780;28;20403;-70
2022/06/14 12:28:42;;;;;;;4.95;2.10;;;;;;;38.59;15.86;100641.94;5033961;28;20911;-71
2022/06/14 12:31:16;;;;;;;4.28;1.98;;;;;;;38.57;16.04;100642.34;5033649;28;20435;-71
2022/06/14 12:33:47;;;;;;;3.27;1.87;;;;;;;38.48;16.01;100644.94;5033880;28;20401;-71
2022/06/14 12:36:19;;;;;;;3.27;1.63;;;;;;;38.28;16.29;100630.69;5033795;28;20395;-71